createdAt,value
2022-11-05T00:02:08.359Z,100314.27
2022-11-05T00:04:57.988Z,100310.83
2022-11-05T00:08:02.474Z,100323.73
2022-11-05T00:10:36.840Z,100314.27
2022-11-05T00:13:28.651Z,100327.17
2022-11-05T00:16:18.098Z,100322.03
2022-11-05T00:18:51.822Z,100321.21
2022-11-05T00:21:41.729Z,100333.28
2022-11-05T00:24:31.304Z,100335.02
2022-11-05T00:27:03.445Z,100335.02
2022-11-05T00:29:35.775Z,100339.29
2022-11-05T00:32:07.880Z,100343.63
2022-11-05T00:34:39.755Z,100339.35
2022-11-05T00:37:11.782Z,100336.77
2022-11-05T00:39:43.652Z,100334.21
2022-11-05T00:42:33.324Z,100335.09
2022-11-05T00:45:06.521Z,100339.42
2022-11-05T00:47:57.161Z,100349.75
2022-11-05T00:50:29.361Z,100342.88
2022-11-05T00:53:02.059Z,100339.51
2022-11-05T00:55:39.714Z,100357.66
2022-11-05T00:58:13.915Z,100357.63
2022-11-05T01:00:48.625Z,100355.09
2022-11-05T01:03:23.646Z,100361.18
2022-11-05T01:05:57.939Z,100359.48
2022-11-05T01:08:29.969Z,100361.27
2022-11-05T01:11:01.874Z,100371.60
2022-11-05T01:13:33.757Z,100359.50
2022-11-05T01:16:10.980Z,100363.89
2022-11-05T01:18:42.872Z,100363.95
2022-11-05T01:21:16.028Z,100364.78
2022-11-05T01:23:48.030Z,100367.34
2022-11-05T01:26:19.934Z,100381.96
2022-11-05T01:28:57.282Z,100376.00
2022-11-05T01:31:29.336Z,100380.33
2022-11-05T01:34:02.167Z,100375.23
2022-11-05T01:36:34.165Z,100381.32
2022-11-05T01:39:06.155Z,100387.38
2022-11-05T01:41:38.369Z,100385.64
2022-11-05T01:44:48.017Z,100389.97
2022-11-05T01:47:37.653Z,100374.42
2022-11-05T01:50:27.574Z,100386.42
2022-11-05T01:53:27.816Z,100389.86
2022-11-05T01:56:11.732Z,100391.57
2022-11-05T01:58:46.743Z,100389.85
2022-11-05T02:01:19.073Z,100388.99
2022-11-05T02:03:53.915Z,100402.80
2022-11-05T02:06:28.657Z,100404.51
2022-11-05T02:09:03.711Z,100412.22
2022-11-05T02:11:35.856Z,100404.45
2022-11-05T02:14:07.928Z,100409.69
2022-11-05T02:16:51.602Z,100409.71
2022-11-05T02:19:50.086Z,100414.88
2022-11-05T02:22:41.427Z,100409.71
2022-11-05T02:25:37.159Z,100408.83
2022-11-05T02:28:17.798Z,100412.30
2022-11-05T02:30:52.597Z,100422.68
2022-11-05T02:33:54.363Z,100414.08
2022-11-05T02:36:38.071Z,100414.13
2022-11-05T02:39:27.524Z,100416.70
2022-11-05T02:42:18.429Z,100425.32
2022-11-05T02:45:01.880Z,100425.32
2022-11-05T02:47:53.003Z,100432.20
2022-11-05T02:50:33.480Z,100427.03
2022-11-05T02:53:14.574Z,100428.75
2022-11-05T02:55:52.657Z,100427.94
2022-11-05T02:58:24.632Z,100434.88
2022-11-05T03:00:57.941Z,100428.83
2022-11-05T03:03:32.644Z,100434.89
2022-11-05T03:06:19.097Z,100442.67
2022-11-05T03:09:26.487Z,100429.72
2022-11-05T03:12:22.424Z,100434.89
2022-11-05T03:15:03.416Z,100440.91
2022-11-05T03:17:40.795Z,100438.36
2022-11-05T03:20:27.186Z,100450.42
2022-11-05T03:23:26.362Z,100452.12
2022-11-05T03:26:04.168Z,100449.53
2022-11-05T03:28:39.175Z,100448.66
2022-11-05T03:31:14.371Z,100458.14
2022-11-05T03:33:48.695Z,100452.11
2022-11-05T03:36:23.539Z,100456.42
2022-11-05T03:38:58.115Z,100458.12
2022-11-05T03:41:32.814Z,100454.64
2022-11-05T03:44:08.168Z,100461.52
2022-11-05T03:46:49.513Z,100468.44
2022-11-05T03:49:24.368Z,100470.14
2022-11-05T03:52:01.684Z,100476.16
2022-11-05T03:54:35.891Z,100474.43
2022-11-05T03:57:22.297Z,100477.90
2022-11-05T03:59:54.330Z,100488.21
2022-11-05T04:02:28.505Z,100488.26
2022-11-05T04:04:59.895Z,100492.56
2022-11-05T04:07:50.378Z,100491.58
2022-11-05T04:10:42.047Z,100495.09
2022-11-05T04:13:26.165Z,100492.50
2022-11-05T04:16:16.006Z,100494.25
2022-11-05T04:18:47.987Z,100496.84
2022-11-05T04:21:37.813Z,100491.69
2022-11-05T04:24:09.912Z,100496.03
2022-11-05T04:26:44.746Z,100500.34
2022-11-05T04:29:34.364Z,100491.70
2022-11-05T04:32:06.631Z,100494.30
2022-11-05T04:34:38.561Z,100489.98
2022-11-05T04:37:10.592Z,100500.34
2022-11-05T04:39:42.483Z,100499.45
2022-11-05T04:42:14.510Z,100498.57
2022-11-05T04:44:46.473Z,100504.63
2022-11-05T04:47:18.570Z,100502.87
2022-11-05T04:49:50.616Z,100509.80
2022-11-05T04:52:22.776Z,100506.31
2022-11-05T04:54:55.191Z,100506.31
2022-11-05T04:57:27.235Z,100501.97
2022-11-05T04:59:59.430Z,100512.33
2022-11-05T05:02:33.264Z,100506.30
2022-11-05T05:05:06.375Z,100511.48
2022-11-05T05:07:38.327Z,100517.48
2022-11-05T05:10:11.517Z,100514.02
2022-11-05T05:12:43.451Z,100515.71
2022-11-05T05:15:15.397Z,100514.81
2022-11-05T05:17:52.454Z,100518.28
2022-11-05T05:20:42.219Z,100526.94
2022-11-05T05:23:14.435Z,100523.47
2022-11-05T05:25:46.584Z,100522.58
2022-11-05T05:28:18.664Z,100526.88
2022-11-05T05:30:53.634Z,100538.93
2022-11-05T05:33:24.371Z,100532.87
2022-11-05T05:36:04.701Z,100530.25
2022-11-05T05:38:36.471Z,100540.60
2022-11-05T05:41:08.732Z,100550.90
2022-11-05T05:43:40.848Z,100553.48
2022-11-05T05:46:15.129Z,100552.66
2022-11-05T05:48:47.722Z,100556.96
2022-11-05T05:51:20.269Z,100561.14
2022-11-05T05:53:53.828Z,100564.70
2022-11-05T05:56:25.790Z,100575.02
2022-11-05T05:58:57.728Z,100567.24
2022-11-05T06:01:29.770Z,100572.42
2022-11-05T06:04:01.779Z,100566.34
2022-11-05T06:06:34.066Z,100567.19
2022-11-05T06:09:06.517Z,100562.83
2022-11-05T06:11:38.602Z,100568.83
2022-11-05T06:14:14.599Z,100569.69
2022-11-05T06:16:46.657Z,100573.10
2022-11-05T06:19:18.837Z,100580.89
2022-11-05T06:21:51.044Z,100574.87
2022-11-05T06:24:23.967Z,100589.53
2022-11-05T06:26:55.898Z,100590.35
2022-11-05T06:29:28.132Z,100586.87
2022-11-05T06:32:00.152Z,100585.97
2022-11-05T06:34:32.078Z,100579.95
2022-11-05T06:37:04.076Z,100585.13
2022-11-05T06:39:36.026Z,100590.26
2022-11-05T06:42:23.615Z,100589.34
2022-11-05T06:44:42.023Z,100586.73
2022-11-05T06:47:14.050Z,100591.92
2022-11-05T06:49:46.693Z,100591.04
2022-11-05T06:52:18.606Z,100593.63
2022-11-05T06:54:51.172Z,100598.80
2022-11-05T06:57:23.204Z,100593.59
2022-11-05T07:00:00.620Z,100600.48
2022-11-05T07:02:28.693Z,100593.37
2022-11-05T07:05:00.772Z,100593.37
2022-11-05T07:07:32.865Z,100600.25
2022-11-05T07:10:06.408Z,100605.41
2022-11-05T07:12:38.599Z,100607.11
2022-11-05T07:15:12.322Z,100614.81
2022-11-05T07:17:44.325Z,100612.19
2022-11-05T07:20:16.725Z,100616.48
2022-11-05T07:22:49.758Z,100620.83
2022-11-05T07:25:22.770Z,100626.84
2022-11-05T07:27:55.246Z,100621.66
2022-11-05T07:30:27.766Z,100625.12
2022-11-05T07:33:00.105Z,100623.36
2022-11-05T07:35:32.303Z,100622.46
2022-11-05T07:38:05.361Z,100639.70
2022-11-05T07:40:37.767Z,100636.31
2022-11-05T07:43:12.207Z,100648.50
2022-11-05T07:45:45.955Z,100655.22
2022-11-05T07:48:18.366Z,100650.25
2022-11-05T07:50:53.523Z,100657.22
2022-11-05T07:53:25.415Z,100662.50
2022-11-05T07:55:59.125Z,100661.64
2022-11-05T07:58:31.585Z,100657.32
2022-11-05T08:01:03.837Z,100661.62
2022-11-05T08:03:36.759Z,100655.53
2022-11-05T08:06:08.943Z,100650.31
2022-11-05T08:08:40.768Z,100653.71
2022-11-05T08:11:13.439Z,100656.27
2022-11-05T08:13:45.378Z,100659.66
2022-11-05T08:16:18.065Z,100656.16
2022-11-05T08:18:50.036Z,100668.27
2022-11-05T08:21:22.144Z,100669.17
2022-11-05T08:23:54.134Z,100668.27
2022-11-05T08:26:26.145Z,100664.84
2022-11-05T08:28:58.283Z,100663.98
2022-11-05T08:31:31.183Z,100664.88
2022-11-05T08:34:03.165Z,100657.95
2022-11-05T08:36:36.919Z,100662.23
2022-11-05T08:39:14.303Z,100670.81
2022-11-05T08:41:42.487Z,100672.53
2022-11-05T08:44:13.978Z,100676.58
2022-11-05T08:46:46.091Z,100673.25
2022-11-05T08:49:18.029Z,100674.99
2022-11-05T08:51:50.286Z,100676.77
2022-11-05T08:54:22.357Z,100672.50
2022-11-05T08:56:54.632Z,100684.59
2022-11-05T08:59:27.346Z,100687.17
2022-11-05T09:01:59.821Z,100684.59
2022-11-05T09:04:31.963Z,100669.84
2022-11-05T09:07:03.984Z,100667.25
2022-11-05T09:09:36.201Z,100666.39
2022-11-05T09:12:12.921Z,100662.02
2022-11-05T09:14:42.262Z,100668.08
2022-11-05T09:17:20.761Z,100665.41
2022-11-05T09:19:53.276Z,100667.16
2022-11-05T09:22:25.338Z,100668.89
2022-11-05T09:24:57.582Z,100663.70
2022-11-05T09:27:29.576Z,100667.19
2022-11-05T09:30:02.027Z,100673.28
2022-11-05T09:32:34.238Z,100675.88
2022-11-05T09:35:07.414Z,100674.97
2022-11-05T09:37:39.437Z,100678.39
2022-11-05T09:40:14.601Z,100678.39
2022-11-05T09:42:48.016Z,100686.17
2022-11-05T09:45:22.923Z,100674.95
2022-11-05T09:48:00.888Z,100676.66
2022-11-05T09:50:35.906Z,100675.80
2022-11-05T09:53:09.089Z,100690.48
2022-11-05T09:55:44.846Z,100681.84
2022-11-05T09:58:28.394Z,100687.06
2022-11-05T10:00:56.913Z,100688.84
2022-11-05T10:03:31.308Z,100692.25
2022-11-05T10:06:04.005Z,100691.45
2022-11-05T10:08:38.834Z,100692.10
2022-11-05T10:11:17.570Z,100696.58
2022-11-05T10:13:56.308Z,100707.86
2022-11-05T10:16:34.260Z,100704.45
2022-11-05T10:19:19.315Z,100705.34
2022-11-05T10:22:05.636Z,100709.69
2022-11-05T10:24:24.934Z,100707.11
2022-11-05T10:26:57.772Z,100707.81
2022-11-05T10:29:32.750Z,100714.06
2022-11-05T10:32:07.532Z,100713.20
2022-11-05T10:34:41.138Z,100712.39
2022-11-05T10:37:13.517Z,100708.96
2022-11-05T10:39:45.579Z,100711.50
2022-11-05T10:42:26.618Z,100714.97
2022-11-05T10:45:07.616Z,100715.81
2022-11-05T10:47:51.165Z,100711.48
2022-11-05T10:50:26.245Z,100709.79
2022-11-05T10:53:10.227Z,100714.08
2022-11-05T10:55:45.217Z,100713.16
2022-11-05T10:58:23.370Z,100713.12
2022-11-05T11:00:58.285Z,100723.45
2022-11-05T11:03:36.457Z,100720.00
2022-11-05T11:06:29.588Z,100720.84
2022-11-05T11:09:10.327Z,100724.33
2022-11-05T11:11:43.820Z,100731.23
2022-11-05T11:14:19.230Z,100728.72
2022-11-05T11:16:54.463Z,100729.63
2022-11-05T11:19:37.075Z,100726.13
2022-11-05T11:22:12.038Z,100732.16
2022-11-05T11:24:47.996Z,100723.53
2022-11-05T11:27:31.478Z,100727.84
2022-11-05T11:30:06.288Z,100726.05
2022-11-05T11:32:40.596Z,100728.63
2022-11-05T11:35:27.127Z,100738.13
2022-11-05T11:38:01.625Z,100739.00
2022-11-05T11:40:36.583Z,100745.02
2022-11-05T11:43:17.126Z,100741.60
2022-11-05T11:45:51.964Z,100749.39
2022-11-05T11:48:32.051Z,100746.81
2022-11-05T11:51:18.755Z,100742.55
2022-11-05T11:53:51.559Z,100748.65
2022-11-05T11:56:23.568Z,100746.13
2022-11-05T11:58:57.650Z,100749.61
2022-11-05T12:01:44.598Z,100749.63
2022-11-05T12:04:35.822Z,100740.97
2022-11-05T12:07:13.943Z,100743.62
2022-11-05T12:10:12.568Z,100746.23
2022-11-05T12:13:17.490Z,100747.94
2022-11-05T12:16:04.754Z,100749.66
2022-11-05T12:18:57.791Z,100747.06
2022-11-05T12:21:51.879Z,100757.51
2022-11-05T12:24:21.909Z,100759.26
2022-11-05T12:27:10.456Z,100761.84
2022-11-05T12:30:01.331Z,100766.23
2022-11-05T12:33:04.815Z,100763.72
2022-11-05T12:36:00.418Z,100761.13
2022-11-05T12:38:52.817Z,100760.27
2022-11-05T12:41:27.789Z,100753.37
2022-11-05T12:44:11.545Z,100755.96
2022-11-05T12:47:02.596Z,100755.14
2022-11-05T12:50:05.749Z,100754.27
2022-11-05T12:52:46.365Z,100768.14
2022-11-05T12:55:21.141Z,100757.83
2022-11-05T12:57:55.977Z,100767.34
2022-11-05T13:00:30.196Z,100771.70
2022-11-05T13:03:19.940Z,100770.82
2022-11-05T13:06:02.906Z,100771.70
2022-11-05T13:08:54.782Z,100771.71
2022-11-05T13:11:41.365Z,100774.31
2022-11-05T13:14:18.829Z,100789.05
2022-11-05T13:16:53.632Z,100795.08
2022-11-05T13:19:40.254Z,100782.16
2022-11-05T13:22:39.462Z,100778.69
2022-11-05T13:25:20.069Z,100779.55
2022-11-05T13:27:57.825Z,100778.69
2022-11-05T13:30:37.720Z,100780.45
2022-11-05T13:33:30.810Z,100782.17
2022-11-05T13:36:26.320Z,100796.86
2022-11-05T13:39:09.725Z,100807.23
2022-11-05T13:42:04.156Z,100804.64
2022-11-05T13:44:44.843Z,100800.34
2022-11-05T13:47:37.440Z,100806.41
2022-11-05T13:50:15.108Z,100813.31
2022-11-05T13:52:58.762Z,100809.02
2022-11-05T13:55:42.622Z,100818.50
2022-11-05T13:58:32.349Z,100826.28
2022-11-05T14:01:16.320Z,100821.09
2022-11-05T14:03:54.024Z,100828.04
2022-11-05T14:06:31.661Z,100823.74
2022-11-05T14:09:12.388Z,100828.94
2022-11-05T14:11:47.494Z,100826.34
2022-11-05T14:14:28.273Z,100831.58
2022-11-05T14:17:12.180Z,100831.54
2022-11-05T14:20:06.492Z,100834.11
2022-11-05T14:22:41.912Z,100833.23
2022-11-05T14:25:23.385Z,100834.94
2022-11-05T14:27:55.866Z,100837.52
2022-11-05T14:30:47.913Z,100837.52
2022-11-05T14:33:28.358Z,100832.34
2022-11-05T14:36:24.162Z,100836.66
2022-11-05T14:39:04.148Z,100839.25
2022-11-05T14:41:32.666Z,100835.82
2022-11-05T14:44:09.159Z,100841.02
2022-11-05T14:46:49.948Z,100844.50
2022-11-05T14:49:26.275Z,100839.37
2022-11-05T14:52:01.589Z,100844.56
2022-11-05T14:54:41.961Z,100854.09
2022-11-05T14:57:16.382Z,100853.22
2022-11-05T15:00:00.677Z,100850.67
2022-11-05T15:02:38.963Z,100849.80
2022-11-05T15:05:42.616Z,100848.92
2022-11-05T15:08:26.879Z,100848.91
2022-11-05T15:11:10.499Z,100856.69
2022-11-05T15:14:00.107Z,100859.28
2022-11-05T15:16:47.111Z,100856.69
2022-11-05T15:19:24.832Z,100853.22
2022-11-05T15:22:00.376Z,100852.39
2022-11-05T15:24:33.401Z,100851.55
2022-11-05T15:27:16.927Z,100855.02
2022-11-05T15:29:49.093Z,100862.80
2022-11-05T15:32:23.868Z,100861.05
2022-11-05T15:34:57.486Z,100861.92
2022-11-05T15:37:29.842Z,100861.93
2022-11-05T15:40:01.888Z,100867.16
2022-11-05T15:42:34.288Z,100864.56
2022-11-05T15:45:08.842Z,100871.46
2022-11-05T15:47:43.767Z,100879.23
2022-11-05T15:50:17.342Z,100879.23
2022-11-05T15:52:51.854Z,100875.77
2022-11-05T15:55:26.597Z,100877.48
2022-11-05T15:58:07.407Z,100881.79
2022-11-05T16:00:39.652Z,100880.06
2022-11-05T16:03:32.779Z,100878.36
2022-11-05T16:06:06.256Z,100874.88
2022-11-05T16:08:38.638Z,100871.41
2022-11-05T16:11:12.387Z,100871.41
2022-11-05T16:13:44.473Z,100871.42
2022-11-05T16:16:21.426Z,100869.70
2022-11-05T16:18:53.481Z,100869.70
2022-11-05T16:21:25.482Z,100872.29
2022-11-05T16:24:00.419Z,100872.25
2022-11-05T16:27:02.261Z,100882.62
2022-11-05T16:29:21.278Z,100872.25
2022-11-05T16:31:56.541Z,100869.66
2022-11-05T16:34:39.942Z,100867.10
2022-11-05T16:37:17.330Z,100871.42
2022-11-05T16:39:49.695Z,100871.42
2022-11-05T16:42:27.285Z,100875.77
2022-11-05T16:44:59.527Z,100875.77
2022-11-05T16:47:33.178Z,100874.89
2022-11-05T16:50:20.059Z,100884.42
2022-11-05T16:52:52.641Z,100869.70
2022-11-05T16:55:24.614Z,100880.07
2022-11-05T16:57:57.206Z,100880.07
2022-11-05T17:00:29.656Z,100872.30
2022-11-05T17:03:01.537Z,100878.36
2022-11-05T17:05:33.896Z,100881.78
2022-11-05T17:08:05.778Z,100882.66
2022-11-05T17:10:37.942Z,100890.40
2022-11-05T17:13:12.474Z,100890.40
2022-11-05T17:15:46.685Z,100886.09
2022-11-05T17:18:19.758Z,100886.09
2022-11-05T17:20:54.632Z,100878.31
2022-11-05T17:23:27.431Z,100878.31
2022-11-05T17:26:02.265Z,100889.56
2022-11-05T17:28:35.169Z,100885.22
2022-11-05T17:31:10.466Z,100886.09
2022-11-05T17:33:42.857Z,100898.22
2022-11-05T17:36:16.740Z,100890.44
2022-11-05T17:38:48.789Z,100894.75
2022-11-05T17:41:22.924Z,100893.03
2022-11-05T17:43:56.629Z,100891.32
2022-11-05T17:46:28.931Z,100892.20
2022-11-05T17:49:01.072Z,100891.32
2022-11-05T17:51:34.375Z,100894.78
2022-11-05T17:54:07.618Z,100898.25
2022-11-05T17:56:44.494Z,100899.97
2022-11-05T17:59:15.242Z,100898.25
2022-11-05T18:01:47.519Z,100902.59
2022-11-05T18:04:19.673Z,100906.91
2022-11-05T18:06:51.716Z,100906.91
2022-11-05T18:09:23.598Z,100900.00
2022-11-05T18:11:56.152Z,100905.19
2022-11-05T18:14:28.393Z,100912.13
2022-11-05T18:17:03.382Z,100911.25
2022-11-05T18:19:37.099Z,100912.96
2022-11-05T18:22:09.204Z,100914.67
2022-11-05T18:24:41.397Z,100908.66
2022-11-05T18:27:13.874Z,100922.48
2022-11-05T18:29:46.529Z,100911.24
2022-11-05T18:32:18.559Z,100906.09
2022-11-05T18:34:50.868Z,100909.53
2022-11-05T18:37:23.184Z,100905.22
2022-11-05T18:39:55.481Z,100905.22
2022-11-05T18:42:27.452Z,100906.06
2022-11-05T18:44:59.518Z,100905.19
2022-11-05T18:47:33.830Z,100912.96
2022-11-05T18:50:07.431Z,100905.19
2022-11-05T18:52:39.376Z,100907.78
2022-11-05T18:55:11.533Z,100913.84
2022-11-05T18:57:43.420Z,100919.02
2022-11-05T19:00:15.915Z,100908.66
2022-11-05T19:02:48.078Z,100918.14
2022-11-05T19:05:29.069Z,100906.94
2022-11-05T19:07:54.131Z,100910.37
2022-11-05T19:10:26.817Z,100908.66
2022-11-05T19:12:58.898Z,100916.42
2022-11-05T19:15:30.778Z,100912.99
2022-11-05T19:18:02.650Z,100916.42
2022-11-05T19:20:37.803Z,100924.20
2022-11-05T19:23:08.386Z,100920.77
2022-11-05T19:25:40.547Z,100915.55
2022-11-05T19:28:12.686Z,100926.80
2022-11-05T19:30:46.479Z,100931.09
2022-11-05T19:33:18.471Z,100937.16
2022-11-05T19:35:50.598Z,100942.34
2022-11-05T19:38:22.884Z,100941.47
2022-11-05T19:40:54.983Z,100938.87
2022-11-05T19:43:27.224Z,100942.34
2022-11-05T19:45:59.105Z,100941.47
2022-11-05T19:48:31.738Z,100945.78
2022-11-05T19:51:06.686Z,100944.94
2022-11-05T19:53:39.661Z,100948.37
2022-11-05T19:56:14.342Z,100946.66
2022-11-05T19:58:46.550Z,100950.96
2022-11-05T20:01:19.528Z,100943.19
2022-11-05T20:03:52.095Z,100949.23
2022-11-05T20:06:28.811Z,100952.70
2022-11-05T20:11:39.505Z,100954.45
2022-11-05T20:14:11.875Z,100959.63
2022-11-05T20:16:44.012Z,100962.22
2022-11-05T20:19:18.620Z,100955.31
2022-11-05T20:21:50.637Z,100961.38
2022-11-05T20:24:25.266Z,100964.81
2022-11-05T20:26:57.679Z,100963.97
2022-11-05T20:29:35.287Z,100963.97
2022-11-05T20:32:04.860Z,100963.95
2022-11-05T20:34:37.326Z,100957.91
2022-11-05T20:37:09.500Z,100959.66
2022-11-05T20:39:41.681Z,100960.48
2022-11-05T20:42:14.093Z,100960.52
2022-11-05T20:44:45.928Z,100955.34
2022-11-05T20:47:18.103Z,100949.27
2022-11-05T20:49:50.585Z,100954.46
2022-11-05T20:52:22.846Z,100953.59
2022-11-05T20:54:55.059Z,100951.87
2022-11-05T20:57:27.916Z,100961.37
2022-11-05T21:00:00.002Z,100956.17
2022-11-05T21:02:33.952Z,100957.05
2022-11-05T21:05:07.516Z,100955.33
2022-11-05T21:07:39.555Z,100954.48
2022-11-05T21:10:12.071Z,100957.91
2022-11-05T21:12:45.017Z,100954.45
2022-11-05T21:15:18.721Z,100954.45
2022-11-05T21:17:51.542Z,100956.17
2022-11-05T21:20:23.589Z,100958.80
2022-11-05T21:22:55.818Z,100954.45
2022-11-05T21:25:27.882Z,100956.20
2022-11-05T21:28:00.336Z,100957.07
2022-11-05T21:30:32.278Z,100959.66
2022-11-05T21:33:05.357Z,100968.30
2022-11-05T21:35:44.174Z,100963.10
2022-11-05T21:38:17.524Z,100964.81
2022-11-05T21:40:49.621Z,100971.75
2022-11-05T21:43:21.729Z,100970.88
2022-11-05T21:45:53.815Z,100968.28
2022-11-05T21:48:26.073Z,100970.02
2022-11-05T21:51:15.559Z,100978.64
2022-11-05T21:54:05.692Z,100975.20
2022-11-05T21:56:55.323Z,100980.39
2022-11-05T21:59:45.100Z,100977.78
2022-11-05T22:02:26.656Z,100976.06
2022-11-05T22:05:00.172Z,100984.68
2022-11-05T22:07:35.596Z,100980.38
2022-11-05T22:10:14.857Z,100987.27
2022-11-05T22:12:44.654Z,100977.78
2022-11-05T22:15:16.779Z,100981.24
2022-11-05T22:17:52.990Z,100975.18
2022-11-05T22:20:25.935Z,100971.73
2022-11-05T22:22:57.959Z,100973.47
2022-11-05T22:25:29.804Z,100977.79
2022-11-05T22:28:01.746Z,100972.60
2022-11-05T22:30:36.997Z,100983.83
2022-11-05T22:33:09.020Z,100986.41
2022-11-05T22:35:41.493Z,100990.73
2022-11-05T22:38:13.929Z,100995.92
2022-11-05T22:40:46.337Z,100990.73
2022-11-05T22:43:19.049Z,100998.52
2022-11-05T22:45:51.628Z,101006.27
2022-11-05T22:48:23.685Z,100992.45
2022-11-05T22:50:55.901Z,100997.62
2022-11-05T22:53:27.979Z,101000.22
2022-11-05T22:55:59.908Z,101007.97
2022-11-05T22:58:32.168Z,101004.55
2022-11-05T23:01:05.028Z,101008.83
2022-11-05T23:03:37.922Z,101006.26
2022-11-05T23:06:17.374Z,101011.45
2022-11-05T23:09:06.096Z,101016.63
2022-11-05T23:11:41.047Z,101015.74
2022-11-05T23:14:14.659Z,101018.32
2022-11-05T23:17:05.053Z,101016.59
2022-11-05T23:19:55.367Z,101029.53
2022-11-05T23:22:47.412Z,101020.05
2022-11-05T23:25:22.141Z,101026.09
2022-11-05T23:27:55.614Z,101026.97
2022-11-05T23:30:29.451Z,101026.08
2022-11-05T23:33:01.615Z,101017.45
2022-11-05T23:35:52.823Z,101026.08
2022-11-05T23:38:38.110Z,101019.17
2022-11-05T23:41:28.857Z,101017.45
2022-11-05T23:44:18.945Z,101010.53
2022-11-05T23:47:08.817Z,101012.28
2022-11-05T23:49:41.389Z,101006.23
2022-11-05T23:52:13.416Z,101007.12
2022-11-05T23:54:45.733Z,101005.36
2022-11-05T23:57:18.067Z,101011.43
2022-11-05T23:59:50.041Z,101005.38
